Terminal Aerodrome Forecast
Issued by NWS Northern Indiana

Home | Current Version | Previous Version | Graphics & Text | Print | Product List | Glossary On
Versions: 1 2 3 4 5 6 7 8 9 10 11 12 13 14 15 16 17
000
FTUS43 KIWX 231100
TAFFWA
TAF
KFWA 231130Z 2312/2412 00000KT 1/4SM FZFG VV002
      TEMPO 2312/2314 1SM BR BKN003
     FM231400 19003KT 4SM BR SCT015
     FM231600 21004KT P6SM SCT250=

USA.gov is the U.S. government's official web portal to all federal, state and local government web resources and services.